createdAt,value
2022-08-14T00:02:36.995Z,23.20
2022-08-14T00:05:06.441Z,23.20
2022-08-14T00:07:41.988Z,23.20
2022-08-14T00:10:49.734Z,23.30
2022-08-14T00:13:07.144Z,23.30
2022-08-14T00:15:44.620Z,23.30
2022-08-14T00:18:30.788Z,23.40
2022-08-14T00:21:11.399Z,23.40
2022-08-14T00:23:43.356Z,23.30
2022-08-14T00:26:21.376Z,23.40
2022-08-14T00:28:50.772Z,23.40
2022-08-14T00:31:20.121Z,23.40
2022-08-14T00:34:35.333Z,23.40
2022-08-14T00:36:53.113Z,23.40
2022-08-14T00:39:24.233Z,23.40
2022-08-14T00:41:54.724Z,23.40
2022-08-14T00:44:32.491Z,23.40
2022-08-14T00:47:03.602Z,23.30
2022-08-14T00:49:38.138Z,23.20
2022-08-14T00:52:14.178Z,23.10
2022-08-14T00:54:58.033Z,23.00
2022-08-14T00:57:28.894Z,22.90
2022-08-14T00:59:58.523Z,22.90
2022-08-14T01:02:31.642Z,22.80
2022-08-14T01:05:05.302Z,22.60
2022-08-14T01:07:38.535Z,22.50
2022-08-14T01:10:10.114Z,22.50
2022-08-14T01:12:41.565Z,22.30
2022-08-14T01:15:14.647Z,22.30
2022-08-14T01:18:01.556Z,22.20
2022-08-14T01:20:47.694Z,22.10
2022-08-14T01:23:21.739Z,22.00
2022-08-14T01:25:54.382Z,21.90
2022-08-14T01:28:46.582Z,21.90
2022-08-14T01:31:15.934Z,21.90
2022-08-14T01:35:16.509Z,21.90
2022-08-14T01:36:39.287Z,21.80
2022-08-14T01:39:12.807Z,21.80
2022-08-14T01:41:44.271Z,21.80
2022-08-14T01:44:32.501Z,21.90
2022-08-14T01:47:16.602Z,21.90
2022-08-14T01:49:59.756Z,21.90
2022-08-14T01:52:58.719Z,22.00
2022-08-14T01:55:32.314Z,22.00
2022-08-14T01:58:20.226Z,22.00
2022-08-14T02:00:55.566Z,22.10
2022-08-14T02:03:30.180Z,22.10
2022-08-14T02:06:03.854Z,22.00
2022-08-14T02:08:53.439Z,22.10
2022-08-14T02:11:26.394Z,22.00
2022-08-14T02:14:06.700Z,21.90
2022-08-14T02:16:39.812Z,21.90
2022-08-14T02:19:13.607Z,21.90
2022-08-14T02:21:48.755Z,21.90
2022-08-14T02:24:40.232Z,21.90
2022-08-14T02:28:24.521Z,22.00
2022-08-14T02:30:02.426Z,22.00
2022-08-14T02:32:36.841Z,22.00
2022-08-14T02:35:15.862Z,22.00
2022-08-14T02:37:47.974Z,22.00
2022-08-14T02:40:18.587Z,22.00
2022-08-14T02:42:55.307Z,22.00
2022-08-14T02:45:33.271Z,22.10
2022-08-14T02:49:04.869Z,22.10
2022-08-14T02:51:00.874Z,22.10
2022-08-14T02:53:30.062Z,22.10
2022-08-14T02:56:02.967Z,22.00
2022-08-14T02:58:38.719Z,22.00
2022-08-14T03:01:12.053Z,22.00
2022-08-14T03:03:40.905Z,21.90
2022-08-14T03:06:20.484Z,22.00
2022-08-14T03:09:03.507Z,21.90
2022-08-14T03:11:34.736Z,21.90
2022-08-14T03:14:05.948Z,21.90
2022-08-14T03:16:36.495Z,21.80
2022-08-14T03:19:09.016Z,21.80
2022-08-14T03:21:41.098Z,21.70
2022-08-14T03:24:21.400Z,21.70
2022-08-14T03:26:57.413Z,21.70
2022-08-14T03:29:29.472Z,21.70
2022-08-14T03:31:59.566Z,21.80
2022-08-14T03:34:48.063Z,21.80
2022-08-14T03:37:37.678Z,21.80
2022-08-14T03:40:11.272Z,21.80
2022-08-14T03:42:40.762Z,21.80
2022-08-14T03:45:19.826Z,21.90
2022-08-14T03:48:04.196Z,21.90
2022-08-14T03:50:39.738Z,22.00
2022-08-14T03:53:08.346Z,22.00
2022-08-14T03:55:38.657Z,22.00
2022-08-14T03:58:08.456Z,22.00
2022-08-14T04:00:44.699Z,22.00
2022-08-14T04:03:23.525Z,22.00
2022-08-14T04:05:52.830Z,21.90
2022-08-14T04:08:30.017Z,21.90
2022-08-14T04:11:02.714Z,21.80
2022-08-14T04:13:34.494Z,21.80
2022-08-14T04:16:10.195Z,21.70
2022-08-14T04:18:42.501Z,21.70
2022-08-14T04:21:11.448Z,21.70
2022-08-14T04:23:40.337Z,21.70
2022-08-14T04:26:15.001Z,21.70
2022-08-14T04:29:08.686Z,21.70
2022-08-14T04:33:01.232Z,21.70
2022-08-14T04:34:35.289Z,21.80
2022-08-14T04:37:25.460Z,21.80
2022-08-14T04:40:12.578Z,21.80
2022-08-14T04:42:58.967Z,21.80
2022-08-14T04:45:40.854Z,21.70
2022-08-14T04:48:39.818Z,21.80
2022-08-14T04:51:05.468Z,21.80
2022-08-14T04:53:42.910Z,21.90
2022-08-14T04:56:31.683Z,21.90
2022-08-14T04:59:09.526Z,21.90
2022-08-14T05:01:40.105Z,21.90
2022-08-14T05:04:14.699Z,21.90
2022-08-14T05:06:45.107Z,22.00
2022-08-14T05:09:14.143Z,22.00
2022-08-14T05:11:44.158Z,22.10
2022-08-14T05:14:33.736Z,22.10
2022-08-14T05:17:02.405Z,22.10
2022-08-14T05:19:33.011Z,22.10
2022-08-14T05:22:16.892Z,22.20
2022-08-14T05:24:50.474Z,22.20
2022-08-14T05:27:22.620Z,22.40
2022-08-14T05:29:57.415Z,22.50
2022-08-14T05:32:27.420Z,22.70
2022-08-14T05:35:08.009Z,22.90
2022-08-14T05:37:36.587Z,23.10
2022-08-14T05:40:12.436Z,23.20
2022-08-14T05:42:41.007Z,23.30
2022-08-14T05:45:17.427Z,23.50
2022-08-14T05:47:46.277Z,23.60
2022-08-14T05:50:21.113Z,23.70
2022-08-14T05:52:52.797Z,23.70
2022-08-14T05:55:23.111Z,23.80
2022-08-14T05:57:57.815Z,23.90
2022-08-14T06:00:36.896Z,23.90
2022-08-14T06:03:09.338Z,24.00
2022-08-14T06:05:40.097Z,24.10
2022-08-14T06:08:31.391Z,24.20
2022-08-14T06:11:07.320Z,24.20
2022-08-14T06:13:41.088Z,24.30
2022-08-14T06:16:17.864Z,24.20
2022-08-14T06:18:47.558Z,24.20
2022-08-14T06:21:18.537Z,24.20
2022-08-14T06:23:49.046Z,24.10
2022-08-14T06:26:20.681Z,24.10
2022-08-14T06:28:52.460Z,24.10
2022-08-14T06:31:21.469Z,24.10
2022-08-14T06:35:02.675Z,24.10
2022-08-14T06:36:41.750Z,24.10
2022-08-14T06:39:10.943Z,24.20
2022-08-14T06:41:58.234Z,24.30
2022-08-14T06:44:32.294Z,24.30
2022-08-14T06:47:03.373Z,24.40
2022-08-14T06:49:40.102Z,24.50
2022-08-14T06:52:15.256Z,24.50
2022-08-14T06:54:45.376Z,24.40
2022-08-14T06:57:14.447Z,24.40
2022-08-14T06:59:43.313Z,24.30
2022-08-14T07:02:29.705Z,24.30
2022-08-14T07:05:20.026Z,24.30
2022-08-14T07:07:51.389Z,24.20
2022-08-14T07:10:24.877Z,24.20
2022-08-14T07:13:03.750Z,24.20
2022-08-14T07:15:40.007Z,24.20
2022-08-14T07:18:12.307Z,24.30
2022-08-14T07:20:44.398Z,24.50
2022-08-14T07:23:20.805Z,24.60
2022-08-14T07:25:51.872Z,24.80
2022-08-14T07:28:23.767Z,25.00
2022-08-14T07:30:56.348Z,25.10
2022-08-14T07:33:29.871Z,25.30
2022-08-14T07:36:01.587Z,25.50
2022-08-14T07:38:37.487Z,25.60
2022-08-14T07:41:14.859Z,25.80
2022-08-14T07:43:53.185Z,25.80
2022-08-14T07:46:28.487Z,26.00
2022-08-14T07:48:58.848Z,26.10
2022-08-14T07:51:36.759Z,26.20
2022-08-14T07:54:11.456Z,26.40
2022-08-14T07:56:47.612Z,26.50
2022-08-14T07:59:40.919Z,26.50
2022-08-14T08:02:18.693Z,26.60
2022-08-14T08:04:54.309Z,26.70
2022-08-14T08:07:29.683Z,26.70
2022-08-14T08:10:31.420Z,26.80
2022-08-14T08:13:13.997Z,26.90
2022-08-14T08:15:45.246Z,27.00
2022-08-14T08:18:27.313Z,27.10
2022-08-14T08:20:59.374Z,27.20
2022-08-14T08:23:34.966Z,27.20
2022-08-14T08:26:10.481Z,27.30
2022-08-14T08:28:39.027Z,27.40
2022-08-14T08:31:13.577Z,27.40
2022-08-14T08:33:49.578Z,27.40
2022-08-14T08:36:19.089Z,27.40
2022-08-14T08:39:18.226Z,27.50
2022-08-14T08:41:45.648Z,27.50
2022-08-14T08:44:31.772Z,27.50
2022-08-14T08:47:06.567Z,27.50
2022-08-14T08:49:48.363Z,27.60
2022-08-14T08:52:25.236Z,27.50
2022-08-14T08:54:57.789Z,27.50
2022-08-14T08:57:28.777Z,27.50
2022-08-14T08:59:59.050Z,27.70
2022-08-14T09:02:29.162Z,27.80
2022-08-14T09:05:04.323Z,28.00
2022-08-14T09:07:33.232Z,28.10
2022-08-14T09:10:02.239Z,28.20
2022-08-14T09:12:35.338Z,28.30
2022-08-14T09:15:08.954Z,28.50
2022-08-14T09:17:42.274Z,28.60
2022-08-14T09:20:12.696Z,28.90
2022-08-14T09:22:48.041Z,29.10
2022-08-14T09:25:19.854Z,29.20
2022-08-14T09:28:08.557Z,29.30
2022-08-14T09:30:40.257Z,29.30
2022-08-14T09:33:17.455Z,29.30
2022-08-14T09:36:04.887Z,29.30
2022-08-14T09:38:43.717Z,29.60
2022-08-14T09:41:25.048Z,29.80
2022-08-14T09:44:04.627Z,30.10
2022-08-14T09:46:35.407Z,30.60
2022-08-14T09:49:06.760Z,30.80
2022-08-14T09:51:45.133Z,30.90
2022-08-14T09:54:38.536Z,30.90
2022-08-14T09:57:10.423Z,31.00
2022-08-14T09:59:46.277Z,31.10
2022-08-14T10:02:23.525Z,31.20
2022-08-14T10:05:08.724Z,31.30
2022-08-14T10:07:53.783Z,31.40
2022-08-14T10:10:34.710Z,31.50
2022-08-14T10:13:05.082Z,32.30
2022-08-14T10:15:41.793Z,33.10
2022-08-14T10:18:18.475Z,33.80
2022-08-14T10:20:55.447Z,34.30
2022-08-14T10:23:26.555Z,34.80
2022-08-14T10:26:02.007Z,35.60
2022-08-14T10:29:19.004Z,35.80
2022-08-14T10:31:44.454Z,36.30
2022-08-14T10:34:19.837Z,36.70
2022-08-14T10:37:10.472Z,37.00
2022-08-14T10:39:51.285Z,38.10
2022-08-14T10:42:43.611Z,38.60
2022-08-14T10:45:21.953Z,40.30
2022-08-14T10:48:09.497Z,41.00
2022-08-14T10:50:46.356Z,40.40
2022-08-14T10:53:16.037Z,39.20
2022-08-14T10:55:45.466Z,38.10
2022-08-14T10:58:17.730Z,37.40
2022-08-14T11:00:57.430Z,36.90
2022-08-14T11:03:55.792Z,36.60
2022-08-14T11:06:25.355Z,36.40
2022-08-14T11:08:56.763Z,36.20
2022-08-14T11:11:28.629Z,35.80
2022-08-14T11:14:09.406Z,35.70
2022-08-14T11:16:40.575Z,35.70
2022-08-14T11:19:13.787Z,36.20
2022-08-14T11:21:45.865Z,36.10
2022-08-14T11:24:53.854Z,36.30
2022-08-14T11:27:06.937Z,37.50
2022-08-14T11:29:37.217Z,39.00
2022-08-14T11:32:08.108Z,38.80
2022-08-14T11:34:40.168Z,38.40
2022-08-14T11:37:23.699Z,37.80
2022-08-14T11:40:01.166Z,37.30
2022-08-14T11:42:56.240Z,36.60
2022-08-14T11:45:23.151Z,36.10
2022-08-14T11:48:12.568Z,35.60
2022-08-14T11:50:43.373Z,35.00
2022-08-14T11:53:22.629Z,34.40
2022-08-14T11:55:58.625Z,34.00
2022-08-14T11:58:29.197Z,33.60
2022-08-14T12:01:04.257Z,33.40
2022-08-14T12:03:51.686Z,33.20
2022-08-14T12:06:39.571Z,33.00
2022-08-14T12:09:15.052Z,32.70
2022-08-14T12:11:46.989Z,32.60
2022-08-14T12:14:34.872Z,32.70
2022-08-14T12:17:12.014Z,32.70
2022-08-14T12:19:53.930Z,32.60
2022-08-14T12:22:40.296Z,32.50
2022-08-14T12:25:13.242Z,32.40
2022-08-14T12:27:52.818Z,32.30
2022-08-14T12:30:35.913Z,32.30
2022-08-14T12:33:24.113Z,32.20
2022-08-14T12:35:57.729Z,32.20
2022-08-14T12:38:43.750Z,32.10
2022-08-14T12:41:20.347Z,31.90
2022-08-14T12:43:53.835Z,31.60
2022-08-14T12:46:29.725Z,31.30
2022-08-14T12:49:00.247Z,31.10
2022-08-14T12:51:31.626Z,31.00
2022-08-14T12:54:02.439Z,30.90
2022-08-14T12:56:34.113Z,30.90
2022-08-14T12:59:04.929Z,30.90
2022-08-14T13:02:00.014Z,30.90
2022-08-14T13:04:23.987Z,30.80
2022-08-14T13:06:54.185Z,30.80
2022-08-14T13:09:36.376Z,30.80
2022-08-14T13:12:32.269Z,30.90
2022-08-14T13:15:00.035Z,31.00
2022-08-14T13:17:38.213Z,31.10
2022-08-14T13:20:10.318Z,31.20
2022-08-14T13:22:42.623Z,31.30
2022-08-14T13:25:16.644Z,31.30
2022-08-14T13:27:47.865Z,31.30
2022-08-14T13:30:23.907Z,31.20
2022-08-14T13:32:54.605Z,31.10
2022-08-14T13:35:27.344Z,31.10
2022-08-14T13:37:58.872Z,31.00
2022-08-14T13:40:30.266Z,31.00
2022-08-14T13:42:59.196Z,30.90
2022-08-14T13:45:33.934Z,30.80
2022-08-14T13:48:19.211Z,30.60
2022-08-14T13:51:04.235Z,30.60
2022-08-14T13:53:38.252Z,30.60
2022-08-14T13:56:36.867Z,30.70
2022-08-14T13:59:05.377Z,30.70
2022-08-14T14:01:42.773Z,30.90
2022-08-14T14:04:19.545Z,31.00
2022-08-14T14:06:51.360Z,31.00
2022-08-14T14:09:32.445Z,31.10
2022-08-14T14:12:37.665Z,31.00
2022-08-14T14:15:05.401Z,31.10
2022-08-14T14:17:36.348Z,31.10
2022-08-14T14:20:15.151Z,31.10
2022-08-14T14:23:02.525Z,31.20
2022-08-14T14:25:46.034Z,31.10
2022-08-14T14:28:24.459Z,31.10
2022-08-14T14:30:57.385Z,31.00
2022-08-14T14:33:49.563Z,31.10
2022-08-14T14:36:21.949Z,31.10
2022-08-14T14:38:54.769Z,31.00
2022-08-14T14:41:24.246Z,31.10
2022-08-14T14:43:57.974Z,31.00
2022-08-14T14:46:36.843Z,31.00
2022-08-14T14:49:07.969Z,31.00
2022-08-14T14:51:43.332Z,30.90
2022-08-14T14:54:13.046Z,30.90
2022-08-14T14:56:50.580Z,30.90
2022-08-14T14:59:22.555Z,31.00
2022-08-14T15:01:54.333Z,31.00
2022-08-14T15:04:24.644Z,31.10
2022-08-14T15:06:55.267Z,31.30
2022-08-14T15:09:24.017Z,31.40
2022-08-14T15:11:52.757Z,31.60
2022-08-14T15:14:55.706Z,31.60
2022-08-14T15:17:11.517Z,31.90
2022-08-14T15:19:40.265Z,32.00
2022-08-14T15:22:10.397Z,32.00
2022-08-14T15:24:40.040Z,32.30
2022-08-14T15:27:09.429Z,32.40
2022-08-14T15:29:43.109Z,32.50
2022-08-14T15:32:12.216Z,32.30
2022-08-14T15:34:51.647Z,32.10
2022-08-14T15:37:23.908Z,32.10
2022-08-14T15:39:54.723Z,32.00
2022-08-14T15:42:23.686Z,31.80
2022-08-14T15:44:58.316Z,31.60
2022-08-14T15:47:31.220Z,31.30
2022-08-14T15:50:01.661Z,31.30
2022-08-14T15:52:35.411Z,31.10
2022-08-14T15:55:15.078Z,30.90
2022-08-14T15:58:02.185Z,30.60
2022-08-14T16:00:53.292Z,30.30
2022-08-14T16:03:27.080Z,30.10
2022-08-14T16:06:03.858Z,30.00
2022-08-14T16:08:32.510Z,30.00
2022-08-14T16:11:02.665Z,29.90
2022-08-14T16:13:40.444Z,29.90
2022-08-14T16:16:34.433Z,30.00
2022-08-14T16:19:09.937Z,30.10
2022-08-14T16:22:01.866Z,30.10
2022-08-14T16:24:59.712Z,30.10
2022-08-14T16:27:38.822Z,30.30
2022-08-14T16:30:25.140Z,30.40
2022-08-14T16:33:00.993Z,30.30
2022-08-14T16:35:42.984Z,30.20
2022-08-14T16:38:46.042Z,30.10
2022-08-14T16:41:23.117Z,29.90
2022-08-14T16:44:01.659Z,29.80
2022-08-14T16:46:34.896Z,29.70
2022-08-14T16:49:08.293Z,29.70
2022-08-14T16:51:40.065Z,29.60
2022-08-14T16:54:34.279Z,29.50
2022-08-14T16:57:16.390Z,29.30
2022-08-14T16:59:51.857Z,29.10
2022-08-14T17:02:35.644Z,28.90
2022-08-14T17:05:32.608Z,28.70
2022-08-14T17:08:33.428Z,28.50
2022-08-14T17:11:11.124Z,28.40
2022-08-14T17:13:59.169Z,28.30
2022-08-14T17:16:35.795Z,28.20
2022-08-14T17:19:11.603Z,28.30
2022-08-14T17:21:46.897Z,28.20
2022-08-14T17:24:56.537Z,28.20
2022-08-14T17:27:10.881Z,28.10
2022-08-14T17:29:56.491Z,28.00
2022-08-14T17:32:44.289Z,28.00
2022-08-14T17:35:57.931Z,28.00
2022-08-14T17:38:38.685Z,27.90
2022-08-14T17:41:32.646Z,27.80
2022-08-14T17:44:14.280Z,27.80
2022-08-14T17:46:55.309Z,27.70
2022-08-14T17:49:32.024Z,27.70
2022-08-14T17:52:17.087Z,27.60
2022-08-14T17:54:52.896Z,27.60
2022-08-14T17:57:40.748Z,27.50
2022-08-14T18:00:13.299Z,27.40
2022-08-14T18:02:50.841Z,27.20
2022-08-14T18:06:09.699Z,27.20
2022-08-14T18:08:34.361Z,27.20
2022-08-14T18:11:07.287Z,27.20
2022-08-14T18:13:51.480Z,27.10
2022-08-14T18:16:22.813Z,27.00
2022-08-14T18:18:53.139Z,26.90
2022-08-14T18:21:41.502Z,26.80
2022-08-14T18:24:28.103Z,26.80
2022-08-14T18:27:09.430Z,26.70
2022-08-14T18:29:55.476Z,26.50
2022-08-14T18:32:55.502Z,26.50
2022-08-14T18:35:46.114Z,26.50
2022-08-14T18:38:42.654Z,26.40
2022-08-14T18:41:37.284Z,26.40
2022-08-14T18:44:10.762Z,26.40
2022-08-14T18:47:15.985Z,26.30
2022-08-14T18:50:27.254Z,26.20
2022-08-14T18:53:09.057Z,26.10
2022-08-14T18:55:53.406Z,26.00
2022-08-14T18:58:28.170Z,26.00
2022-08-14T19:01:06.320Z,25.90
2022-08-14T19:03:58.480Z,25.80
2022-08-14T19:06:55.916Z,25.80
2022-08-14T19:09:54.189Z,25.80
2022-08-14T19:12:57.122Z,25.80
2022-08-14T19:15:29.063Z,25.80
2022-08-14T19:18:14.228Z,25.80
2022-08-14T19:20:53.513Z,25.70
2022-08-14T19:23:42.413Z,25.70
2022-08-14T19:26:36.040Z,25.70
2022-08-14T19:29:38.017Z,25.80
2022-08-14T19:32:40.359Z,25.70
2022-08-14T19:35:49.889Z,25.60
2022-08-14T19:38:57.321Z,25.60
2022-08-14T19:41:30.099Z,25.50
2022-08-14T19:44:11.923Z,25.50
2022-08-14T19:47:01.386Z,25.50
2022-08-14T19:50:07.857Z,25.50
2022-08-14T19:52:29.625Z,25.50
2022-08-14T19:54:59.655Z,25.40
2022-08-14T19:57:30.461Z,25.40
2022-08-14T20:00:20.667Z,25.30
2022-08-14T20:03:10.651Z,25.30
2022-08-14T20:05:46.233Z,25.30
2022-08-14T20:11:00.093Z,25.40
2022-08-14T20:11:21.150Z,25.30
2022-08-14T20:14:10.241Z,25.30
2022-08-14T20:16:41.082Z,25.20
2022-08-14T20:19:21.220Z,25.20
2022-08-14T20:21:58.385Z,25.10
2022-08-14T20:24:41.173Z,25.10
2022-08-14T20:27:33.671Z,25.00
2022-08-14T20:30:33.094Z,25.00
2022-08-14T20:33:07.654Z,25.00
2022-08-14T20:35:42.019Z,25.00
2022-08-14T20:38:28.998Z,24.90
2022-08-14T20:41:05.700Z,24.90
2022-08-14T20:43:54.244Z,24.90
2022-08-14T20:46:29.849Z,24.90
2022-08-14T20:49:01.107Z,24.80
2022-08-14T20:51:37.465Z,24.70
2022-08-14T20:54:08.902Z,24.70
2022-08-14T20:56:41.113Z,24.70
2022-08-14T20:59:18.192Z,24.70
2022-08-14T21:01:55.307Z,24.60
2022-08-14T21:04:28.103Z,24.60
2022-08-14T21:07:25.991Z,24.50
2022-08-14T21:10:06.523Z,24.50
2022-08-14T21:13:14.377Z,24.50
2022-08-14T21:15:27.962Z,24.40
2022-08-14T21:18:02.482Z,24.40
2022-08-14T21:20:31.322Z,24.40
2022-08-14T21:23:01.828Z,24.40
2022-08-14T21:25:34.862Z,24.40
2022-08-14T21:28:04.991Z,24.40
2022-08-14T21:30:50.996Z,24.40
2022-08-14T21:33:23.592Z,24.30
2022-08-14T21:35:55.000Z,24.20
2022-08-14T21:38:33.478Z,24.20
2022-08-14T21:41:41.581Z,24.10
2022-08-14T21:44:18.189Z,24.10
2022-08-14T21:46:53.582Z,24.00
2022-08-14T21:49:38.459Z,24.00
2022-08-14T21:52:49.118Z,23.90
2022-08-14T21:55:09.431Z,23.90
2022-08-14T21:57:56.466Z,23.90
2022-08-14T22:00:42.248Z,23.90
2022-08-14T22:03:17.526Z,23.90
2022-08-14T22:05:51.222Z,23.80
2022-08-14T22:08:26.600Z,23.80
2022-08-14T22:10:57.084Z,23.70
2022-08-14T22:13:32.404Z,23.70
2022-08-14T22:16:02.575Z,23.60
2022-08-14T22:18:32.272Z,23.60
2022-08-14T22:21:05.876Z,23.50
2022-08-14T22:23:36.822Z,23.50
2022-08-14T22:26:06.602Z,23.50
2022-08-14T22:28:35.503Z,23.40
2022-08-14T22:31:10.340Z,23.40
2022-08-14T22:33:42.924Z,23.40
2022-08-14T22:36:34.325Z,23.40
2022-08-14T22:39:11.342Z,23.30
2022-08-14T22:41:42.603Z,23.30
2022-08-14T22:44:15.183Z,23.20
2022-08-14T22:46:45.377Z,23.20
2022-08-14T22:49:16.262Z,23.20
2022-08-14T22:52:33.242Z,23.20
2022-08-14T22:54:58.937Z,23.20
2022-08-14T22:57:37.825Z,23.30
2022-08-14T23:00:12.362Z,23.20
2022-08-14T23:02:42.314Z,23.20
2022-08-14T23:05:15.210Z,23.20
2022-08-14T23:08:56.606Z,23.20
2022-08-14T23:10:35.058Z,23.10
2022-08-14T23:13:06.753Z,23.10
2022-08-14T23:15:37.575Z,23.10
2022-08-14T23:18:07.542Z,23.10
2022-08-14T23:20:44.336Z,23.00
2022-08-14T23:23:22.774Z,22.90
2022-08-14T23:25:59.050Z,22.90
2022-08-14T23:28:33.603Z,22.90
2022-08-14T23:31:34.813Z,22.80
2022-08-14T23:34:06.852Z,22.80
2022-08-14T23:36:52.605Z,22.70
2022-08-14T23:39:30.540Z,22.70
2022-08-14T23:42:02.505Z,22.60
2022-08-14T23:44:35.717Z,22.60
2022-08-14T23:47:11.522Z,22.50
2022-08-14T23:50:00.655Z,22.50
2022-08-14T23:52:50.500Z,22.40
2022-08-14T23:55:21.060Z,22.30
2022-08-14T23:57:58.218Z,22.30
